sensor_id;sensor_type;location;lat;lon;timestamp;temperature;humidity
41838;DHT22;27511;52.042;5.178;2024-01-11T00:00:34;1.40;99.90
41838;DHT22;27511;52.042;5.178;2024-01-11T00:03:00;1.40;99.90
41838;DHT22;27511;52.042;5.178;2024-01-11T00:05:26;1.30;99.90
41838;DHT22;27511;52.042;5.178;2024-01-11T00:07:51;1.40;99.90
41838;DHT22;27511;52.042;5.178;2024-01-11T00:10:17;1.40;99.90
41838;DHT22;27511;52.042;5.178;2024-01-11T00:12:42;1.40;99.90
41838;DHT22;27511;52.042;5.178;2024-01-11T00:15:08;1.40;99.90
41838;DHT22;27511;52.042;5.178;2024-01-11T00:17:34;1.40;99.90
41838;DHT22;27511;52.042;5.178;2024-01-11T00:20:00;1.30;99.90
41838;DHT22;27511;52.042;5.178;2024-01-11T00:22:26;1.30;99.90
41838;DHT22;27511;52.042;5.178;2024-01-11T00:24:51;1.30;99.90
41838;DHT22;27511;52.042;5.178;2024-01-11T00:27:17;1.30;99.90
41838;DHT22;27511;52.042;5.178;2024-01-11T00:29:42;1.30;99.90
41838;DHT22;27511;52.042;5.178;2024-01-11T00:32:08;1.30;99.90
41838;DHT22;27511;52.042;5.178;2024-01-11T00:34:34;1.20;99.90
41838;DHT22;27511;52.042;5.178;2024-01-11T00:37:01;1.20;99.90
41838;DHT22;27511;52.042;5.178;2024-01-11T00:39:27;1.20;99.90
41838;DHT22;27511;52.042;5.178;2024-01-11T00:41:52;1.10;99.90
41838;DHT22;27511;52.042;5.178;2024-01-11T00:44:18;1.00;99.90
41838;DHT22;27511;52.042;5.178;2024-01-11T00:46:46;1.00;99.90
41838;DHT22;27511;52.042;5.178;2024-01-11T00:49:12;0.90;99.90
41838;DHT22;27511;52.042;5.178;2024-01-11T00:51:37;0.90;99.90
41838;DHT22;27511;52.042;5.178;2024-01-11T00:54:03;0.90;99.90
41838;DHT22;27511;52.042;5.178;2024-01-11T00:56:29;0.90;99.90
41838;DHT22;27511;52.042;5.178;2024-01-11T00:58:54;0.80;99.90
41838;DHT22;27511;52.042;5.178;2024-01-11T01:01:20;0.80;99.90
41838;DHT22;27511;52.042;5.178;2024-01-11T01:03:45;0.80;99.90
41838;DHT22;27511;52.042;5.178;2024-01-11T01:06:11;0.80;99.90
41838;DHT22;27511;52.042;5.178;2024-01-11T01:08:36;0.70;99.90
41838;DHT22;27511;52.042;5.178;2024-01-11T01:11:02;0.80;99.90
41838;DHT22;27511;52.042;5.178;2024-01-11T01:13:28;0.80;99.90
41838;DHT22;27511;52.042;5.178;2024-01-11T01:15:53;0.70;99.90
41838;DHT22;27511;52.042;5.178;2024-01-11T01:18:19;0.70;99.90
41838;DHT22;27511;52.042;5.178;2024-01-11T01:20:44;0.70;99.90
41838;DHT22;27511;52.042;5.178;2024-01-11T01:23:10;0.70;99.90
41838;DHT22;27511;52.042;5.178;2024-01-11T01:25:35;0.70;99.90
41838;DHT22;27511;52.042;5.178;2024-01-11T01:28:01;0.70;99.90
41838;DHT22;27511;52.042;5.178;2024-01-11T01:30:27;0.80;99.90
41838;DHT22;27511;52.042;5.178;2024-01-11T01:32:53;0.80;99.90
41838;DHT22;27511;52.042;5.178;2024-01-11T01:35:19;0.80;99.90
41838;DHT22;27511;52.042;5.178;2024-01-11T01:37:45;0.80;99.90
41838;DHT22;27511;52.042;5.178;2024-01-11T01:40:11;0.80;99.90
41838;DHT22;27511;52.042;5.178;2024-01-11T01:42:42;0.70;99.90
41838;DHT22;27511;52.042;5.178;2024-01-11T01:45:08;0.70;99.90
41838;DHT22;27511;52.042;5.178;2024-01-11T01:47:34;0.70;99.90
41838;DHT22;27511;52.042;5.178;2024-01-11T01:50:00;0.70;99.90
41838;DHT22;27511;52.042;5.178;2024-01-11T01:52:25;0.60;99.90
41838;DHT22;27511;52.042;5.178;2024-01-11T01:54:52;0.70;99.90
41838;DHT22;27511;52.042;5.178;2024-01-11T01:57:19;0.60;99.90
41838;DHT22;27511;52.042;5.178;2024-01-11T01:59:45;0.50;99.90
41838;DHT22;27511;52.042;5.178;2024-01-11T02:02:15;0.50;99.90
41838;DHT22;27511;52.042;5.178;2024-01-11T02:04:42;0.50;99.90
41838;DHT22;27511;52.042;5.178;2024-01-11T02:07:08;0.50;99.90
41838;DHT22;27511;52.042;5.178;2024-01-11T02:09:36;0.50;99.90
41838;DHT22;27511;52.042;5.178;2024-01-11T02:12:02;0.50;99.90
41838;DHT22;27511;52.042;5.178;2024-01-11T02:14:28;0.50;99.90
41838;DHT22;27511;52.042;5.178;2024-01-11T02:16:54;0.60;99.90
41838;DHT22;27511;52.042;5.178;2024-01-11T02:19:21;0.60;99.90
41838;DHT22;27511;52.042;5.178;2024-01-11T02:21:49;0.50;99.90
41838;DHT22;27511;52.042;5.178;2024-01-11T02:24:18;0.60;99.90
41838;DHT22;27511;52.042;5.178;2024-01-11T02:27:04;0.50;99.90
41838;DHT22;27511;52.042;5.178;2024-01-11T02:29:33;0.50;99.90
41838;DHT22;27511;52.042;5.178;2024-01-11T02:32:01;0.50;99.90
41838;DHT22;27511;52.042;5.178;2024-01-11T02:34:28;0.50;99.90
41838;DHT22;27511;52.042;5.178;2024-01-11T02:36:55;0.50;99.90
41838;DHT22;27511;52.042;5.178;2024-01-11T02:39:22;0.40;99.90
41838;DHT22;27511;52.042;5.178;2024-01-11T02:41:50;0.40;99.90
41838;DHT22;27511;52.042;5.178;2024-01-11T02:44:16;0.30;99.90
41838;DHT22;27511;52.042;5.178;2024-01-11T02:46:42;0.30;99.90
41838;DHT22;27511;52.042;5.178;2024-01-11T02:49:07;0.40;99.90
41838;DHT22;27511;52.042;5.178;2024-01-11T02:51:33;0.40;99.90
41838;DHT22;27511;52.042;5.178;2024-01-11T02:53:58;0.40;99.90
41838;DHT22;27511;52.042;5.178;2024-01-11T02:56:24;0.30;99.90
41838;DHT22;27511;52.042;5.178;2024-01-11T02:58:50;0.30;99.90
41838;DHT22;27511;52.042;5.178;2024-01-11T03:01:15;0.30;99.90
41838;DHT22;27511;52.042;5.178;2024-01-11T03:03:41;0.30;99.90
41838;DHT22;27511;52.042;5.178;2024-01-11T03:06:07;0.40;99.90
41838;DHT22;27511;52.042;5.178;2024-01-11T03:08:33;0.30;99.90
41838;DHT22;27511;52.042;5.178;2024-01-11T03:10:58;0.40;99.90
41838;DHT22;27511;52.042;5.178;2024-01-11T03:13:24;0.30;99.90
41838;DHT22;27511;52.042;5.178;2024-01-11T03:15:49;0.30;99.90
41838;DHT22;27511;52.042;5.178;2024-01-11T03:18:15;0.20;99.90
41838;DHT22;27511;52.042;5.178;2024-01-11T03:20:40;0.20;99.90
41838;DHT22;27511;52.042;5.178;2024-01-11T03:23:06;0.30;99.90
41838;DHT22;27511;52.042;5.178;2024-01-11T03:25:32;0.30;99.90
41838;DHT22;27511;52.042;5.178;2024-01-11T03:27:58;0.30;99.90
41838;DHT22;27511;52.042;5.178;2024-01-11T03:30:24;0.40;99.90
41838;DHT22;27511;52.042;5.178;2024-01-11T03:32:50;0.30;99.90
41838;DHT22;27511;52.042;5.178;2024-01-11T03:35:15;0.30;99.90
41838;DHT22;27511;52.042;5.178;2024-01-11T03:37:41;0.30;99.90
41838;DHT22;27511;52.042;5.178;2024-01-11T03:40:07;0.30;99.90
41838;DHT22;27511;52.042;5.178;2024-01-11T03:42:32;0.30;99.90
41838;DHT22;27511;52.042;5.178;2024-01-11T03:44:58;0.30;99.90
41838;DHT22;27511;52.042;5.178;2024-01-11T03:47:23;0.20;99.90
41838;DHT22;27511;52.042;5.178;2024-01-11T03:49:49;0.10;99.90
41838;DHT22;27511;52.042;5.178;2024-01-11T03:52:15;0.00;99.90
41838;DHT22;27511;52.042;5.178;2024-01-11T03:54:40;0.10;99.90
41838;DHT22;27511;52.042;5.178;2024-01-11T03:57:06;0.10;99.90
41838;DHT22;27511;52.042;5.178;2024-01-11T03:59:32;0.10;99.90
41838;DHT22;27511;52.042;5.178;2024-01-11T04:01:58;0.00;99.90
41838;DHT22;27511;52.042;5.178;2024-01-11T04:04:24;0.10;99.90
41838;DHT22;27511;52.042;5.178;2024-01-11T04:06:51;0.10;99.90
41838;DHT22;27511;52.042;5.178;2024-01-11T04:09:17;0.20;99.90
41838;DHT22;27511;52.042;5.178;2024-01-11T04:11:42;0.20;99.90
41838;DHT22;27511;52.042;5.178;2024-01-11T04:14:08;0.10;99.90
41838;DHT22;27511;52.042;5.178;2024-01-11T04:16:33;0.00;99.90
41838;DHT22;27511;52.042;5.178;2024-01-11T04:18:59;0.20;99.90
41838;DHT22;27511;52.042;5.178;2024-01-11T04:21:26;0.10;99.90
41838;DHT22;27511;52.042;5.178;2024-01-11T04:23:58;0.10;99.90
41838;DHT22;27511;52.042;5.178;2024-01-11T04:26:24;-0.10;99.90
41838;DHT22;27511;52.042;5.178;2024-01-11T04:28:50;-0.10;99.90
41838;DHT22;27511;52.042;5.178;2024-01-11T04:31:15;0.00;99.90
41838;DHT22;27511;52.042;5.178;2024-01-11T04:33:44;-0.10;99.90
41838;DHT22;27511;52.042;5.178;2024-01-11T04:36:10;-0.10;99.90
41838;DHT22;27511;52.042;5.178;2024-01-11T04:38:36;-0.20;99.90
41838;DHT22;27511;52.042;5.178;2024-01-11T04:41:09;-0.10;99.90
41838;DHT22;27511;52.042;5.178;2024-01-11T04:43:42;-0.10;99.90
41838;DHT22;27511;52.042;5.178;2024-01-11T04:46:15;0.00;99.90
41838;DHT22;27511;52.042;5.178;2024-01-11T04:48:41;0.00;99.90
41838;DHT22;27511;52.042;5.178;2024-01-11T04:51:07;-0.10;99.90
41838;DHT22;27511;52.042;5.178;2024-01-11T04:53:32;-0.20;99.90
41838;DHT22;27511;52.042;5.178;2024-01-11T04:55:58;-0.10;99.90
41838;DHT22;27511;52.042;5.178;2024-01-11T04:58:23;-0.10;99.90
41838;DHT22;27511;52.042;5.178;2024-01-11T05:00:49;-0.10;99.90
41838;DHT22;27511;52.042;5.178;2024-01-11T05:03:15;-0.10;99.90
41838;DHT22;27511;52.042;5.178;2024-01-11T05:05:40;-0.10;99.90
41838;DHT22;27511;52.042;5.178;2024-01-11T05:08:06;-0.10;99.90
41838;DHT22;27511;52.042;5.178;2024-01-11T05:10:31;-0.20;99.90
41838;DHT22;27511;52.042;5.178;2024-01-11T05:12:57;-0.10;99.90
41838;DHT22;27511;52.042;5.178;2024-01-11T05:15:22;-0.20;99.90
41838;DHT22;27511;52.042;5.178;2024-01-11T05:17:48;-0.20;99.90
41838;DHT22;27511;52.042;5.178;2024-01-11T05:20:14;-0.30;99.90
41838;DHT22;27511;52.042;5.178;2024-01-11T05:22:40;-0.20;99.90
41838;DHT22;27511;52.042;5.178;2024-01-11T05:25:06;-0.20;99.90
41838;DHT22;27511;52.042;5.178;2024-01-11T05:27:31;-0.20;99.90
41838;DHT22;27511;52.042;5.178;2024-01-11T05:29:57;-0.20;99.90
41838;DHT22;27511;52.042;5.178;2024-01-11T05:32:22;-0.20;99.90
41838;DHT22;27511;52.042;5.178;2024-01-11T05:34:48;-0.20;99.90
41838;DHT22;27511;52.042;5.178;2024-01-11T05:37:14;-0.30;99.90
41838;DHT22;27511;52.042;5.178;2024-01-11T05:39:39;-0.30;99.90
41838;DHT22;27511;52.042;5.178;2024-01-11T05:42:05;-0.40;99.90
41838;DHT22;27511;52.042;5.178;2024-01-11T05:44:31;-0.40;99.90
41838;DHT22;27511;52.042;5.178;2024-01-11T05:46:57;-0.40;99.90
41838;DHT22;27511;52.042;5.178;2024-01-11T05:49:23;-0.40;99.90
41838;DHT22;27511;52.042;5.178;2024-01-11T05:51:48;-0.50;99.90
41838;DHT22;27511;52.042;5.178;2024-01-11T05:54:15;-0.70;99.90
41838;DHT22;27511;52.042;5.178;2024-01-11T05:56:41;-0.70;99.90
41838;DHT22;27511;52.042;5.178;2024-01-11T05:59:06;-0.70;99.90
41838;DHT22;27511;52.042;5.178;2024-01-11T06:01:32;-0.60;99.90
41838;DHT22;27511;52.042;5.178;2024-01-11T06:03:57;-0.70;99.90
41838;DHT22;27511;52.042;5.178;2024-01-11T06:06:23;-0.80;99.90
41838;DHT22;27511;52.042;5.178;2024-01-11T06:08:48;-0.70;99.90
41838;DHT22;27511;52.042;5.178;2024-01-11T06:11:14;-0.90;99.90
41838;DHT22;27511;52.042;5.178;2024-01-11T06:13:40;-0.80;99.90
41838;DHT22;27511;52.042;5.178;2024-01-11T06:16:06;-0.90;99.90
41838;DHT22;27511;52.042;5.178;2024-01-11T06:18:32;-0.90;99.90
41838;DHT22;27511;52.042;5.178;2024-01-11T06:20:58;-0.90;99.90
41838;DHT22;27511;52.042;5.178;2024-01-11T06:23:25;-0.80;99.90
41838;DHT22;27511;52.042;5.178;2024-01-11T06:25:50;-0.80;99.90
41838;DHT22;27511;52.042;5.178;2024-01-11T06:28:16;-0.70;99.90
41838;DHT22;27511;52.042;5.178;2024-01-11T06:30:41;-0.70;99.90
41838;DHT22;27511;52.042;5.178;2024-01-11T06:33:08;-0.70;99.90
41838;DHT22;27511;52.042;5.178;2024-01-11T06:35:34;-0.70;99.90
41838;DHT22;27511;52.042;5.178;2024-01-11T06:38:00;-0.70;99.90
41838;DHT22;27511;52.042;5.178;2024-01-11T06:40:26;-0.60;99.90
41838;DHT22;27511;52.042;5.178;2024-01-11T06:42:51;-0.50;99.90
41838;DHT22;27511;52.042;5.178;2024-01-11T06:45:17;-0.40;99.90
41838;DHT22;27511;52.042;5.178;2024-01-11T06:47:44;-0.40;99.90
41838;DHT22;27511;52.042;5.178;2024-01-11T06:50:12;-0.50;99.90
41838;DHT22;27511;52.042;5.178;2024-01-11T06:52:38;-0.60;99.90
41838;DHT22;27511;52.042;5.178;2024-01-11T06:55:04;-0.60;99.90
41838;DHT22;27511;52.042;5.178;2024-01-11T06:57:30;-0.50;99.90
41838;DHT22;27511;52.042;5.178;2024-01-11T06:59:55;-0.50;99.90
41838;DHT22;27511;52.042;5.178;2024-01-11T07:02:21;-0.50;99.90
41838;DHT22;27511;52.042;5.178;2024-01-11T07:04:47;-0.50;99.90
41838;DHT22;27511;52.042;5.178;2024-01-11T07:07:12;-0.50;99.90
41838;DHT22;27511;52.042;5.178;2024-01-11T07:09:38;-0.50;99.90
41838;DHT22;27511;52.042;5.178;2024-01-11T07:12:05;-0.50;99.90
41838;DHT22;27511;52.042;5.178;2024-01-11T07:14:31;-0.50;99.90
41838;DHT22;27511;52.042;5.178;2024-01-11T07:16:56;-0.50;99.90
41838;DHT22;27511;52.042;5.178;2024-01-11T07:19:22;-0.50;99.90
41838;DHT22;27511;52.042;5.178;2024-01-11T07:21:47;-0.50;99.90
41838;DHT22;27511;52.042;5.178;2024-01-11T07:24:13;-0.50;99.90
41838;DHT22;27511;52.042;5.178;2024-01-11T07:26:39;-0.50;99.90
41838;DHT22;27511;52.042;5.178;2024-01-11T07:29:04;-0.50;99.90
41838;DHT22;27511;52.042;5.178;2024-01-11T07:31:30;-0.50;99.90
41838;DHT22;27511;52.042;5.178;2024-01-11T07:33:55;-0.50;99.90
41838;DHT22;27511;52.042;5.178;2024-01-11T07:36:21;-0.50;99.90
41838;DHT22;27511;52.042;5.178;2024-01-11T07:38:47;-0.50;99.90
41838;DHT22;27511;52.042;5.178;2024-01-11T07:41:13;-0.50;99.90
41838;DHT22;27511;52.042;5.178;2024-01-11T07:43:40;-0.50;99.90
41838;DHT22;27511;52.042;5.178;2024-01-11T07:46:08;-0.30;99.90
41838;DHT22;27511;52.042;5.178;2024-01-11T07:48:34;-0.40;99.90
41838;DHT22;27511;52.042;5.178;2024-01-11T07:51:00;-0.50;99.90
41838;DHT22;27511;52.042;5.178;2024-01-11T07:53:25;-0.50;99.90
41838;DHT22;27511;52.042;5.178;2024-01-11T07:55:51;-0.50;99.90
41838;DHT22;27511;52.042;5.178;2024-01-11T07:58:17;-0.40;99.90
41838;DHT22;27511;52.042;5.178;2024-01-11T08:00:44;-0.40;99.90
41838;DHT22;27511;52.042;5.178;2024-01-11T08:03:10;-0.50;99.90
41838;DHT22;27511;52.042;5.178;2024-01-11T08:05:36;-0.40;99.90
41838;DHT22;27511;52.042;5.178;2024-01-11T08:08:01;-0.30;99.90
41838;DHT22;27511;52.042;5.178;2024-01-11T08:10:29;-0.40;99.90
41838;DHT22;27511;52.042;5.178;2024-01-11T08:12:56;-0.40;99.90
41838;DHT22;27511;52.042;5.178;2024-01-11T08:15:22;-0.40;99.90
41838;DHT22;27511;52.042;5.178;2024-01-11T08:17:47;-0.40;99.90
41838;DHT22;27511;52.042;5.178;2024-01-11T08:20:14;-0.30;99.90
41838;DHT22;27511;52.042;5.178;2024-01-11T08:22:41;-0.30;99.90
41838;DHT22;27511;52.042;5.178;2024-01-11T08:25:08;-0.30;99.90
41838;DHT22;27511;52.042;5.178;2024-01-11T08:31:35;-0.30;99.90
41838;DHT22;27511;52.042;5.178;2024-01-11T08:34:00;-0.60;99.90
41838;DHT22;27511;52.042;5.178;2024-01-11T08:36:31;-0.70;99.90
41838;DHT22;27511;52.042;5.178;2024-01-11T08:38:58;-0.50;99.90
41838;DHT22;27511;52.042;5.178;2024-01-11T08:41:23;-0.50;99.90
41838;DHT22;27511;52.042;5.178;2024-01-11T08:43:49;-0.30;99.90
41838;DHT22;27511;52.042;5.178;2024-01-11T08:46:23;-0.20;99.90
41838;DHT22;27511;52.042;5.178;2024-01-11T08:48:49;-0.20;99.90
41838;DHT22;27511;52.042;5.178;2024-01-11T08:51:15;-0.10;99.90
41838;DHT22;27511;52.042;5.178;2024-01-11T08:53:41;0.00;99.90
41838;DHT22;27511;52.042;5.178;2024-01-11T08:56:06;0.10;99.90
41838;DHT22;27511;52.042;5.178;2024-01-11T08:58:32;0.20;99.90
41838;DHT22;27511;52.042;5.178;2024-01-11T09:01:00;0.20;99.90
41838;DHT22;27511;52.042;5.178;2024-01-11T09:03:25;0.20;99.90
41838;DHT22;27511;52.042;5.178;2024-01-11T09:05:51;0.20;99.90
41838;DHT22;27511;52.042;5.178;2024-01-11T09:08:17;0.20;99.90
41838;DHT22;27511;52.042;5.178;2024-01-11T09:10:42;0.40;99.90
41838;DHT22;27511;52.042;5.178;2024-01-11T09:13:08;0.20;99.90
41838;DHT22;27511;52.042;5.178;2024-01-11T09:15:34;0.20;99.90
41838;DHT22;27511;52.042;5.178;2024-01-11T09:17:59;0.30;99.90
41838;DHT22;27511;52.042;5.178;2024-01-11T09:20:28;0.30;99.90
41838;DHT22;27511;52.042;5.178;2024-01-11T09:22:53;0.30;99.90
41838;DHT22;27511;52.042;5.178;2024-01-11T09:25:19;0.30;99.90
41838;DHT22;27511;52.042;5.178;2024-01-11T09:27:45;0.30;99.90
41838;DHT22;27511;52.042;5.178;2024-01-11T09:30:11;0.30;99.90
41838;DHT22;27511;52.042;5.178;2024-01-11T09:32:36;0.30;99.90
41838;DHT22;27511;52.042;5.178;2024-01-11T09:35:03;0.40;99.90
41838;DHT22;27511;52.042;5.178;2024-01-11T09:37:30;0.40;99.90
41838;DHT22;27511;52.042;5.178;2024-01-11T09:39:56;0.40;99.90
41838;DHT22;27511;52.042;5.178;2024-01-11T09:42:22;0.50;99.90
41838;DHT22;27511;52.042;5.178;2024-01-11T09:44:47;0.60;99.90
41838;DHT22;27511;52.042;5.178;2024-01-11T09:47:15;0.70;99.90
41838;DHT22;27511;52.042;5.178;2024-01-11T09:49:44;0.70;99.90
41838;DHT22;27511;52.042;5.178;2024-01-11T09:52:12;0.80;99.90
41838;DHT22;27511;52.042;5.178;2024-01-11T09:54:39;0.80;99.90
41838;DHT22;27511;52.042;5.178;2024-01-11T09:57:09;0.80;99.90
41838;DHT22;27511;52.042;5.178;2024-01-11T09:59:35;0.90;99.90
41838;DHT22;27511;52.042;5.178;2024-01-11T10:02:02;0.90;99.90
41838;DHT22;27511;52.042;5.178;2024-01-11T10:04:28;1.00;99.90
41838;DHT22;27511;52.042;5.178;2024-01-11T10:06:55;1.10;99.90
41838;DHT22;27511;52.042;5.178;2024-01-11T10:09:22;1.20;99.90
41838;DHT22;27511;52.042;5.178;2024-01-11T10:11:48;1.30;99.90
41838;DHT22;27511;52.042;5.178;2024-01-11T10:14:15;1.60;99.90
41838;DHT22;27511;52.042;5.178;2024-01-11T10:16:43;1.50;99.90
41838;DHT22;27511;52.042;5.178;2024-01-11T10:19:09;1.50;99.90
41838;DHT22;27511;52.042;5.178;2024-01-11T10:21:38;1.60;99.90
41838;DHT22;27511;52.042;5.178;2024-01-11T10:24:04;1.70;99.90
41838;DHT22;27511;52.042;5.178;2024-01-11T10:26:30;1.90;99.90
41838;DHT22;27511;52.042;5.178;2024-01-11T10:28:59;2.10;99.90
41838;DHT22;27511;52.042;5.178;2024-01-11T10:31:28;2.20;99.90
41838;DHT22;27511;52.042;5.178;2024-01-11T10:33:54;2.20;99.90
41838;DHT22;27511;52.042;5.178;2024-01-11T10:36:19;2.30;99.90
41838;DHT22;27511;52.042;5.178;2024-01-11T10:38:47;2.30;99.90
41838;DHT22;27511;52.042;5.178;2024-01-11T10:41:13;2.30;99.90
41838;DHT22;27511;52.042;5.178;2024-01-11T10:43:44;2.50;99.90
41838;DHT22;27511;52.042;5.178;2024-01-11T10:46:11;2.40;99.90
41838;DHT22;27511;52.042;5.178;2024-01-11T10:48:38;2.40;99.90
41838;DHT22;27511;52.042;5.178;2024-01-11T10:51:07;2.50;99.90
41838;DHT22;27511;52.042;5.178;2024-01-11T10:56:01;2.80;99.90
41838;DHT22;27511;52.042;5.178;2024-01-11T10:58:29;2.80;99.90
41838;DHT22;27511;52.042;5.178;2024-01-11T11:00:55;2.90;99.90
41838;DHT22;27511;52.042;5.178;2024-01-11T11:03:26;2.90;99.90
41838;DHT22;27511;52.042;5.178;2024-01-11T11:05:54;2.90;99.90
41838;DHT22;27511;52.042;5.178;2024-01-11T11:08:22;3.00;99.90
41838;DHT22;27511;52.042;5.178;2024-01-11T11:10:51;3.20;99.90
41838;DHT22;27511;52.042;5.178;2024-01-11T11:13:21;3.10;99.90
41838;DHT22;27511;52.042;5.178;2024-01-11T11:15:48;3.10;99.90
41838;DHT22;27511;52.042;5.178;2024-01-11T11:18:14;3.20;99.90
41838;DHT22;27511;52.042;5.178;2024-01-11T11:20:40;3.30;99.90
41838;DHT22;27511;52.042;5.178;2024-01-11T11:23:10;3.30;99.90
41838;DHT22;27511;52.042;5.178;2024-01-11T11:25:42;3.40;99.90
41838;DHT22;27511;52.042;5.178;2024-01-11T11:28:08;3.50;99.90
41838;DHT22;27511;52.042;5.178;2024-01-11T11:30:43;3.50;99.90
41838;DHT22;27511;52.042;5.178;2024-01-11T11:33:19;3.30;99.90
41838;DHT22;27511;52.042;5.178;2024-01-11T11:35:49;3.50;99.90
41838;DHT22;27511;52.042;5.178;2024-01-11T11:38:18;3.50;99.90
41838;DHT22;27511;52.042;5.178;2024-01-11T11:40:46;3.60;99.90
41838;DHT22;27511;52.042;5.178;2024-01-11T11:43:12;3.70;99.90
41838;DHT22;27511;52.042;5.178;2024-01-11T11:45:40;3.70;99.90
41838;DHT22;27511;52.042;5.178;2024-01-11T11:51:09;3.70;99.90
41838;DHT22;27511;52.042;5.178;2024-01-11T11:53:36;3.80;99.90
41838;DHT22;27511;52.042;5.178;2024-01-11T11:56:02;3.90;99.90
41838;DHT22;27511;52.042;5.178;2024-01-11T11:58:29;4.00;99.90
41838;DHT22;27511;52.042;5.178;2024-01-11T12:00:55;4.00;99.90
41838;DHT22;27511;52.042;5.178;2024-01-11T12:03:35;4.10;99.90
41838;DHT22;27511;52.042;5.178;2024-01-11T12:06:05;4.10;99.90
41838;DHT22;27511;52.042;5.178;2024-01-11T12:08:32;4.10;99.90
41838;DHT22;27511;52.042;5.178;2024-01-11T12:10:58;4.10;99.90
41838;DHT22;27511;52.042;5.178;2024-01-11T12:13:24;4.10;99.90
41838;DHT22;27511;52.042;5.178;2024-01-11T12:15:50;4.20;99.90
41838;DHT22;27511;52.042;5.178;2024-01-11T12:18:16;4.10;99.90
41838;DHT22;27511;52.042;5.178;2024-01-11T12:20:42;4.10;99.90
41838;DHT22;27511;52.042;5.178;2024-01-11T12:23:11;4.20;99.90
41838;DHT22;27511;52.042;5.178;2024-01-11T12:25:42;4.30;99.90
41838;DHT22;27511;52.042;5.178;2024-01-11T12:28:09;4.40;99.90
41838;DHT22;27511;52.042;5.178;2024-01-11T12:30:34;4.40;99.90
41838;DHT22;27511;52.042;5.178;2024-01-11T12:33:00;4.40;99.90
41838;DHT22;27511;52.042;5.178;2024-01-11T12:35:30;4.50;99.90
41838;DHT22;27511;52.042;5.178;2024-01-11T12:38:00;4.40;99.90
41838;DHT22;27511;52.042;5.178;2024-01-11T12:40:32;4.50;99.90
41838;DHT22;27511;52.042;5.178;2024-01-11T12:42:57;4.40;99.90
41838;DHT22;27511;52.042;5.178;2024-01-11T12:45:25;4.50;99.90
41838;DHT22;27511;52.042;5.178;2024-01-11T12:47:52;4.60;99.90
41838;DHT22;27511;52.042;5.178;2024-01-11T12:50:17;4.60;99.90
41838;DHT22;27511;52.042;5.178;2024-01-11T12:52:43;4.70;99.90
41838;DHT22;27511;52.042;5.178;2024-01-11T12:55:18;4.80;99.90
41838;DHT22;27511;52.042;5.178;2024-01-11T12:57:44;4.80;99.90
41838;DHT22;27511;52.042;5.178;2024-01-11T13:00:13;4.80;99.90
41838;DHT22;27511;52.042;5.178;2024-01-11T13:02:39;4.70;99.90
41838;DHT22;27511;52.042;5.178;2024-01-11T13:05:06;4.80;99.90
41838;DHT22;27511;52.042;5.178;2024-01-11T13:07:32;4.80;99.90
41838;DHT22;27511;52.042;5.178;2024-01-11T13:09:59;4.80;99.90
41838;DHT22;27511;52.042;5.178;2024-01-11T13:12:24;4.80;99.90
41838;DHT22;27511;52.042;5.178;2024-01-11T13:14:50;5.00;99.90
41838;DHT22;27511;52.042;5.178;2024-01-11T13:17:18;4.90;99.90
41838;DHT22;27511;52.042;5.178;2024-01-11T13:19:44;4.90;99.90
41838;DHT22;27511;52.042;5.178;2024-01-11T13:22:10;5.00;99.90
41838;DHT22;27511;52.042;5.178;2024-01-11T13:24:35;5.00;99.90
41838;DHT22;27511;52.042;5.178;2024-01-11T13:27:01;4.90;99.90
41838;DHT22;27511;52.042;5.178;2024-01-11T13:29:27;5.10;99.90
41838;DHT22;27511;52.042;5.178;2024-01-11T13:31:52;5.10;99.90
41838;DHT22;27511;52.042;5.178;2024-01-11T13:34:18;5.10;99.90
41838;DHT22;27511;52.042;5.178;2024-01-11T13:36:44;5.10;99.90
41838;DHT22;27511;52.042;5.178;2024-01-11T13:39:10;5.10;99.90
41838;DHT22;27511;52.042;5.178;2024-01-11T13:41:36;5.10;99.90
41838;DHT22;27511;52.042;5.178;2024-01-11T13:44:02;5.20;99.90
41838;DHT22;27511;52.042;5.178;2024-01-11T13:46:31;5.20;99.90
41838;DHT22;27511;52.042;5.178;2024-01-11T13:48:56;5.20;99.90
41838;DHT22;27511;52.042;5.178;2024-01-11T13:51:22;5.10;99.90
41838;DHT22;27511;52.042;5.178;2024-01-11T13:53:48;5.20;99.90
41838;DHT22;27511;52.042;5.178;2024-01-11T13:56:13;5.30;99.90
41838;DHT22;27511;52.042;5.178;2024-01-11T13:58:39;5.30;99.90
41838;DHT22;27511;52.042;5.178;2024-01-11T14:01:04;5.30;99.90
41838;DHT22;27511;52.042;5.178;2024-01-11T14:03:30;5.30;99.90
41838;DHT22;27511;52.042;5.178;2024-01-11T14:05:56;5.40;99.90
41838;DHT22;27511;52.042;5.178;2024-01-11T14:08:22;5.20;99.90
41838;DHT22;27511;52.042;5.178;2024-01-11T14:10:47;5.20;99.90
41838;DHT22;27511;52.042;5.178;2024-01-11T14:13:13;5.20;99.90
41838;DHT22;27511;52.042;5.178;2024-01-11T14:15:38;5.30;99.90
41838;DHT22;27511;52.042;5.178;2024-01-11T14:18:06;5.30;99.90
41838;DHT22;27511;52.042;5.178;2024-01-11T14:20:32;5.40;99.90
41838;DHT22;27511;52.042;5.178;2024-01-11T14:22:59;5.30;99.90
41838;DHT22;27511;52.042;5.178;2024-01-11T14:25:25;5.30;99.90
41838;DHT22;27511;52.042;5.178;2024-01-11T14:27:50;5.30;99.90
41838;DHT22;27511;52.042;5.178;2024-01-11T14:30:16;5.30;99.90
41838;DHT22;27511;52.042;5.178;2024-01-11T14:32:42;5.40;99.90
41838;DHT22;27511;52.042;5.178;2024-01-11T14:35:09;5.30;99.90
41838;DHT22;27511;52.042;5.178;2024-01-11T14:37:36;5.40;99.90
41838;DHT22;27511;52.042;5.178;2024-01-11T14:40:03;5.40;99.90
41838;DHT22;27511;52.042;5.178;2024-01-11T14:42:29;5.40;99.90
41838;DHT22;27511;52.042;5.178;2024-01-11T14:44:55;5.40;99.90
41838;DHT22;27511;52.042;5.178;2024-01-11T14:47:21;5.40;99.90
41838;DHT22;27511;52.042;5.178;2024-01-11T14:49:47;5.50;99.90
41838;DHT22;27511;52.042;5.178;2024-01-11T14:52:13;5.50;99.90
41838;DHT22;27511;52.042;5.178;2024-01-11T14:54:39;5.40;99.90
41838;DHT22;27511;52.042;5.178;2024-01-11T14:57:05;5.30;99.90
41838;DHT22;27511;52.042;5.178;2024-01-11T14:59:34;5.30;99.90
41838;DHT22;27511;52.042;5.178;2024-01-11T15:02:00;5.30;99.90
41838;DHT22;27511;52.042;5.178;2024-01-11T15:04:26;5.40;99.90
41838;DHT22;27511;52.042;5.178;2024-01-11T15:06:52;5.30;99.90
41838;DHT22;27511;52.042;5.178;2024-01-11T15:09:17;5.30;99.90
41838;DHT22;27511;52.042;5.178;2024-01-11T15:11:43;5.30;99.90
41838;DHT22;27511;52.042;5.178;2024-01-11T15:14:09;5.40;99.90
41838;DHT22;27511;52.042;5.178;2024-01-11T15:16:36;5.40;99.90
41838;DHT22;27511;52.042;5.178;2024-01-11T15:19:02;5.40;99.90
41838;DHT22;27511;52.042;5.178;2024-01-11T15:21:29;5.50;99.90
41838;DHT22;27511;52.042;5.178;2024-01-11T15:23:54;5.40;99.90
41838;DHT22;27511;52.042;5.178;2024-01-11T15:26:20;5.50;99.90
41838;DHT22;27511;52.042;5.178;2024-01-11T15:28:46;5.40;99.90
41838;DHT22;27511;52.042;5.178;2024-01-11T15:31:13;5.50;99.90
41838;DHT22;27511;52.042;5.178;2024-01-11T15:33:39;5.50;99.90
41838;DHT22;27511;52.042;5.178;2024-01-11T15:36:05;5.50;99.90
41838;DHT22;27511;52.042;5.178;2024-01-11T15:38:31;5.50;99.90
41838;DHT22;27511;52.042;5.178;2024-01-11T15:40:57;5.50;99.90
41838;DHT22;27511;52.042;5.178;2024-01-11T15:43:22;5.40;99.90
41838;DHT22;27511;52.042;5.178;2024-01-11T15:45:49;5.30;99.90